Barnerville, New York
Current Conditions -  °F | °C
As of 9:35 AM on Saturday 22 Nov 2014 (Local Time) from KNY0 Reporting Station
Clear Clear  
Wind Chill: 21°   Ceiling: Unl
Heat Index: 21°   Visibility: 10mi
Dew Point: 12°   Wind: 0mph
Humidity: 68%   Direction: NA
Pressure: 30.29"   Gusts: NA
Location:  42.7023°N, 74.392°W
Report Text: KNY0 221435Z AUTO 00000KT 10SM CLR M06/M11 A3029 RMK AO2 T10601110
Loading
Personal Weather Stations






























Interactive Weather Map New forecast layout! Learn more

10-Day Weather Forecast

Advertisements
Track Severe Weather on mobile